sensor_id;sensor_type;location;lat;lon;timestamp;temperature;humidity
2995;DHT22;35277;49.890;8.222;2023-02-23T00:00:26;22.20;67.30
2995;DHT22;35277;49.890;8.222;2023-02-23T00:02:55;22.20;67.40
2995;DHT22;35277;49.890;8.222;2023-02-23T00:05:28;22.20;67.40
2995;DHT22;35277;49.890;8.222;2023-02-23T00:07:56;22.20;67.40
2995;DHT22;35277;49.890;8.222;2023-02-23T00:10:24;22.20;67.30
2995;DHT22;35277;49.890;8.222;2023-02-23T00:12:56;22.20;67.40
2995;DHT22;35277;49.890;8.222;2023-02-23T00:15:26;22.20;67.40
2995;DHT22;35277;49.890;8.222;2023-02-23T00:17:56;22.20;67.40
2995;DHT22;35277;49.890;8.222;2023-02-23T00:20:24;22.20;67.40
2995;DHT22;35277;49.890;8.222;2023-02-23T00:22:54;22.20;67.40
2995;DHT22;35277;49.890;8.222;2023-02-23T00:25:23;22.20;67.40
2995;DHT22;35277;49.890;8.222;2023-02-23T00:27:51;22.20;67.40
2995;DHT22;35277;49.890;8.222;2023-02-23T00:30:21;22.20;67.40
2995;DHT22;35277;49.890;8.222;2023-02-23T00:32:51;22.20;67.40
2995;DHT22;35277;49.890;8.222;2023-02-23T00:35:18;22.20;67.50
2995;DHT22;35277;49.890;8.222;2023-02-23T00:37:47;22.20;67.50
2995;DHT22;35277;49.890;8.222;2023-02-23T00:40:16;22.20;67.50
2995;DHT22;35277;49.890;8.222;2023-02-23T00:42:47;22.20;67.50
2995;DHT22;35277;49.890;8.222;2023-02-23T00:45:15;22.20;67.50
2995;DHT22;35277;49.890;8.222;2023-02-23T00:47:44;22.20;67.50
2995;DHT22;35277;49.890;8.222;2023-02-23T00:50:16;22.20;67.50
2995;DHT22;35277;49.890;8.222;2023-02-23T00:52:45;22.20;67.50
2995;DHT22;35277;49.890;8.222;2023-02-23T00:55:13;22.20;67.50
2995;DHT22;35277;49.890;8.222;2023-02-23T00:57:41;22.20;67.50
2995;DHT22;35277;49.890;8.222;2023-02-23T01:00:11;22.20;67.50
2995;DHT22;35277;49.890;8.222;2023-02-23T01:02:44;22.20;67.50
2995;DHT22;35277;49.890;8.222;2023-02-23T01:05:12;22.20;67.50
2995;DHT22;35277;49.890;8.222;2023-02-23T01:07:41;22.20;67.50
2995;DHT22;35277;49.890;8.222;2023-02-23T01:10:12;22.20;67.60
2995;DHT22;35277;49.890;8.222;2023-02-23T01:12:47;22.20;67.60
2995;DHT22;35277;49.890;8.222;2023-02-23T01:15:17;22.20;67.60
2995;DHT22;35277;49.890;8.222;2023-02-23T01:17:45;22.20;68.40
2995;DHT22;35277;49.890;8.222;2023-02-23T01:20:15;22.10;67.50
2995;DHT22;35277;49.890;8.222;2023-02-23T01:22:47;22.10;67.50
2995;DHT22;35277;49.890;8.222;2023-02-23T01:25:17;22.10;67.50
2995;DHT22;35277;49.890;8.222;2023-02-23T01:27:45;22.10;67.50
2995;DHT22;35277;49.890;8.222;2023-02-23T01:30:14;22.10;67.50
2995;DHT22;35277;49.890;8.222;2023-02-23T01:32:42;22.10;67.50
2995;DHT22;35277;49.890;8.222;2023-02-23T01:35:11;22.10;67.50
2995;DHT22;35277;49.890;8.222;2023-02-23T01:37:40;22.10;67.50
2995;DHT22;35277;49.890;8.222;2023-02-23T01:40:14;22.20;67.70
2995;DHT22;35277;49.890;8.222;2023-02-23T01:42:44;22.20;67.70
2995;DHT22;35277;49.890;8.222;2023-02-23T01:45:21;22.20;67.60
2995;DHT22;35277;49.890;8.222;2023-02-23T01:47:50;22.10;67.50
2995;DHT22;35277;49.890;8.222;2023-02-23T01:50:21;22.20;67.70
2995;DHT22;35277;49.890;8.222;2023-02-23T01:52:50;22.10;67.50
2995;DHT22;35277;49.890;8.222;2023-02-23T01:55:21;22.20;67.70
2995;DHT22;35277;49.890;8.222;2023-02-23T01:57:53;22.20;67.70
2995;DHT22;35277;49.890;8.222;2023-02-23T02:00:23;22.10;67.60
2995;DHT22;35277;49.890;8.222;2023-02-23T02:02:53;22.10;67.60
2995;DHT22;35277;49.890;8.222;2023-02-23T02:05:21;22.10;67.60
2995;DHT22;35277;49.890;8.222;2023-02-23T02:07:50;22.20;67.80
2995;DHT22;35277;49.890;8.222;2023-02-23T02:10:27;22.20;67.80
2995;DHT22;35277;49.890;8.222;2023-02-23T02:13:19;22.20;67.80
2995;DHT22;35277;49.890;8.222;2023-02-23T02:22:16;22.20;67.80
2995;DHT22;35277;49.890;8.222;2023-02-23T02:25:07;22.20;67.80
2995;DHT22;35277;49.890;8.222;2023-02-23T02:28:11;22.20;67.80
2995;DHT22;35277;49.890;8.222;2023-02-23T02:31:04;22.10;67.70
2995;DHT22;35277;49.890;8.222;2023-02-23T02:34:12;22.10;67.70
2995;DHT22;35277;49.890;8.222;2023-02-23T02:36:58;22.10;67.80
2995;DHT22;35277;49.890;8.222;2023-02-23T02:39:38;22.10;67.80
2995;DHT22;35277;49.890;8.222;2023-02-23T02:42:19;22.10;67.70
2995;DHT22;35277;49.890;8.222;2023-02-23T02:44:53;22.10;67.80
2995;DHT22;35277;49.890;8.222;2023-02-23T02:47:25;22.10;67.80
2995;DHT22;35277;49.890;8.222;2023-02-23T02:50:00;22.10;67.80
2995;DHT22;35277;49.890;8.222;2023-02-23T02:52:35;22.20;67.90
2995;DHT22;35277;49.890;8.222;2023-02-23T02:55:13;22.20;67.90
2995;DHT22;35277;49.890;8.222;2023-02-23T02:57:42;22.10;67.90
2995;DHT22;35277;49.890;8.222;2023-02-23T03:00:17;22.10;67.80
2995;DHT22;35277;49.890;8.222;2023-02-23T03:03:03;22.10;67.80
2995;DHT22;35277;49.890;8.222;2023-02-23T03:05:50;22.20;67.90
2995;DHT22;35277;49.890;8.222;2023-02-23T03:08:41;22.20;67.90
2995;DHT22;35277;49.890;8.222;2023-02-23T03:11:35;22.10;67.80
2995;DHT22;35277;49.890;8.222;2023-02-23T03:14:29;22.10;67.80
2995;DHT22;35277;49.890;8.222;2023-02-23T03:17:23;22.10;67.90
2995;DHT22;35277;49.890;8.222;2023-02-23T03:20:17;22.10;67.90
2995;DHT22;35277;49.890;8.222;2023-02-23T03:23:09;22.20;68.00
2995;DHT22;35277;49.890;8.222;2023-02-23T03:26:04;22.10;67.90
2995;DHT22;35277;49.890;8.222;2023-02-23T03:28:59;22.10;67.90
2995;DHT22;35277;49.890;8.222;2023-02-23T03:31:52;22.10;67.90
2995;DHT22;35277;49.890;8.222;2023-02-23T03:34:42;22.10;67.90
2995;DHT22;35277;49.890;8.222;2023-02-23T03:37:34;22.10;67.90
2995;DHT22;35277;49.890;8.222;2023-02-23T03:40:23;22.10;67.90
2995;DHT22;35277;49.890;8.222;2023-02-23T03:43:16;22.10;67.90
2995;DHT22;35277;49.890;8.222;2023-02-23T03:46:05;22.10;68.00
2995;DHT22;35277;49.890;8.222;2023-02-23T03:48:53;22.10;68.00
2995;DHT22;35277;49.890;8.222;2023-02-23T03:51:40;22.10;68.00
2995;DHT22;35277;49.890;8.222;2023-02-23T03:54:32;22.10;68.00
2995;DHT22;35277;49.890;8.222;2023-02-23T03:57:20;22.10;68.00
2995;DHT22;35277;49.890;8.222;2023-02-23T04:00:11;22.10;68.00
2995;DHT22;35277;49.890;8.222;2023-02-23T04:02:58;22.10;68.00
2995;DHT22;35277;49.890;8.222;2023-02-23T04:05:45;22.10;68.00
2995;DHT22;35277;49.890;8.222;2023-02-23T04:08:34;22.10;68.10
2995;DHT22;35277;49.890;8.222;2023-02-23T04:11:25;22.10;68.00
2995;DHT22;35277;49.890;8.222;2023-02-23T04:14:16;22.10;68.10
2995;DHT22;35277;49.890;8.222;2023-02-23T04:16:46;22.10;68.10
2995;DHT22;35277;49.890;8.222;2023-02-23T04:19:13;22.10;68.10
2995;DHT22;35277;49.890;8.222;2023-02-23T04:21:41;22.10;68.10
2995;DHT22;35277;49.890;8.222;2023-02-23T04:24:09;22.10;68.10
2995;DHT22;35277;49.890;8.222;2023-02-23T04:26:37;22.10;68.10
2995;DHT22;35277;49.890;8.222;2023-02-23T04:29:05;22.10;68.10
2995;DHT22;35277;49.890;8.222;2023-02-23T04:31:32;22.10;68.00
2995;DHT22;35277;49.890;8.222;2023-02-23T04:34:02;22.10;68.10
2995;DHT22;35277;49.890;8.222;2023-02-23T04:36:30;22.20;68.20
2995;DHT22;35277;49.890;8.222;2023-02-23T04:38:58;22.10;68.10
2995;DHT22;35277;49.890;8.222;2023-02-23T04:41:25;22.10;68.10
2995;DHT22;35277;49.890;8.222;2023-02-23T04:43:53;22.10;68.10
2995;DHT22;35277;49.890;8.222;2023-02-23T04:46:21;22.10;68.10
2995;DHT22;35277;49.890;8.222;2023-02-23T04:48:49;22.10;68.10
2995;DHT22;35277;49.890;8.222;2023-02-23T04:51:18;22.10;68.10
2995;DHT22;35277;49.890;8.222;2023-02-23T04:53:46;22.10;68.10
2995;DHT22;35277;49.890;8.222;2023-02-23T04:56:14;22.10;68.10
2995;DHT22;35277;49.890;8.222;2023-02-23T04:58:42;22.10;68.10
2995;DHT22;35277;49.890;8.222;2023-02-23T05:01:09;22.10;68.20
2995;DHT22;35277;49.890;8.222;2023-02-23T05:03:37;22.10;68.20
2995;DHT22;35277;49.890;8.222;2023-02-23T05:06:05;22.10;68.30
2995;DHT22;35277;49.890;8.222;2023-02-23T05:08:34;22.10;68.40
2995;DHT22;35277;49.890;8.222;2023-02-23T05:11:02;22.10;68.50
2995;DHT22;35277;49.890;8.222;2023-02-23T05:13:30;22.10;68.60
2995;DHT22;35277;49.890;8.222;2023-02-23T05:15:58;22.10;68.70
2995;DHT22;35277;49.890;8.222;2023-02-23T05:18:26;22.10;68.80
2995;DHT22;35277;49.890;8.222;2023-02-23T05:21:00;22.10;68.90
2995;DHT22;35277;49.890;8.222;2023-02-23T05:23:28;22.10;69.00
2995;DHT22;35277;49.890;8.222;2023-02-23T05:26:00;22.10;68.90
2995;DHT22;35277;49.890;8.222;2023-02-23T05:28:29;22.10;69.00
2995;DHT22;35277;49.890;8.222;2023-02-23T05:30:57;22.10;69.00
2995;DHT22;35277;49.890;8.222;2023-02-23T05:33:25;22.10;69.00
2995;DHT22;35277;49.890;8.222;2023-02-23T05:35:53;22.10;69.00
2995;DHT22;35277;49.890;8.222;2023-02-23T05:38:21;22.10;69.00
2995;DHT22;35277;49.890;8.222;2023-02-23T05:40:49;22.10;68.90
2995;DHT22;35277;49.890;8.222;2023-02-23T05:43:18;22.10;68.90
2995;DHT22;35277;49.890;8.222;2023-02-23T05:45:46;22.10;68.90
2995;DHT22;35277;49.890;8.222;2023-02-23T05:48:13;22.10;68.90
2995;DHT22;35277;49.890;8.222;2023-02-23T05:50:41;22.10;68.80
2995;DHT22;35277;49.890;8.222;2023-02-23T05:53:09;22.10;68.80
2995;DHT22;35277;49.890;8.222;2023-02-23T05:55:36;22.10;68.70
2995;DHT22;35277;49.890;8.222;2023-02-23T05:58:04;22.10;68.70
2995;DHT22;35277;49.890;8.222;2023-02-23T06:00:34;22.10;68.70
2995;DHT22;35277;49.890;8.222;2023-02-23T06:03:01;22.20;68.80
2995;DHT22;35277;49.890;8.222;2023-02-23T06:05:29;22.10;68.60
2995;DHT22;35277;49.890;8.222;2023-02-23T06:07:57;22.10;68.60
2995;DHT22;35277;49.890;8.222;2023-02-23T06:10:25;22.10;68.60
2995;DHT22;35277;49.890;8.222;2023-02-23T06:12:52;22.10;68.50
2995;DHT22;35277;49.890;8.222;2023-02-23T06:15:20;22.10;68.50
2995;DHT22;35277;49.890;8.222;2023-02-23T06:17:49;22.10;68.50
2995;DHT22;35277;49.890;8.222;2023-02-23T06:20:17;22.10;68.50
2995;DHT22;35277;49.890;8.222;2023-02-23T06:22:45;22.10;68.40
2995;DHT22;35277;49.890;8.222;2023-02-23T06:25:13;22.10;68.40
2995;DHT22;35277;49.890;8.222;2023-02-23T06:27:41;22.10;68.40
2995;DHT22;35277;49.890;8.222;2023-02-23T06:30:11;22.10;68.30
2995;DHT22;35277;49.890;8.222;2023-02-23T06:32:39;22.10;68.30
2995;DHT22;35277;49.890;8.222;2023-02-23T06:35:12;22.10;68.30
2995;DHT22;35277;49.890;8.222;2023-02-23T06:37:40;22.10;68.20
2995;DHT22;35277;49.890;8.222;2023-02-23T06:40:09;22.10;68.20
2995;DHT22;35277;49.890;8.222;2023-02-23T06:42:37;22.10;68.20
2995;DHT22;35277;49.890;8.222;2023-02-23T06:45:06;22.10;68.20
2995;DHT22;35277;49.890;8.222;2023-02-23T06:47:33;22.10;68.10
2995;DHT22;35277;49.890;8.222;2023-02-23T06:50:01;22.10;68.10
2995;DHT22;35277;49.890;8.222;2023-02-23T06:52:31;22.10;68.10
2995;DHT22;35277;49.890;8.222;2023-02-23T06:54:58;22.10;68.10
2995;DHT22;35277;49.890;8.222;2023-02-23T06:57:26;22.10;68.10
2995;DHT22;35277;49.890;8.222;2023-02-23T06:59:54;22.10;68.10
2995;DHT22;35277;49.890;8.222;2023-02-23T07:02:22;22.10;68.10
2995;DHT22;35277;49.890;8.222;2023-02-23T07:04:50;22.10;68.00
2995;DHT22;35277;49.890;8.222;2023-02-23T07:07:17;22.10;68.00
2995;DHT22;35277;49.890;8.222;2023-02-23T07:09:46;22.10;68.00
2995;DHT22;35277;49.890;8.222;2023-02-23T07:12:14;22.10;68.00
2995;DHT22;35277;49.890;8.222;2023-02-23T07:14:42;22.10;67.90
2995;DHT22;35277;49.890;8.222;2023-02-23T07:17:10;22.10;67.90
2995;DHT22;35277;49.890;8.222;2023-02-23T07:19:38;22.10;67.90
2995;DHT22;35277;49.890;8.222;2023-02-23T07:22:06;22.10;67.90
2995;DHT22;35277;49.890;8.222;2023-02-23T07:24:34;22.10;67.90
2995;DHT22;35277;49.890;8.222;2023-02-23T07:27:03;22.10;67.80
2995;DHT22;35277;49.890;8.222;2023-02-23T07:29:30;22.10;67.80
2995;DHT22;35277;49.890;8.222;2023-02-23T07:31:59;22.10;67.80
2995;DHT22;35277;49.890;8.222;2023-02-23T07:34:27;22.10;67.80
2995;DHT22;35277;49.890;8.222;2023-02-23T07:36:55;22.10;67.70
2995;DHT22;35277;49.890;8.222;2023-02-23T07:39:23;22.10;67.70
2995;DHT22;35277;49.890;8.222;2023-02-23T07:41:51;22.10;67.70
2995;DHT22;35277;49.890;8.222;2023-02-23T07:44:20;22.10;67.70
2995;DHT22;35277;49.890;8.222;2023-02-23T07:46:47;22.10;67.70
2995;DHT22;35277;49.890;8.222;2023-02-23T07:49:16;22.10;67.70
2995;DHT22;35277;49.890;8.222;2023-02-23T07:51:43;22.10;67.70
2995;DHT22;35277;49.890;8.222;2023-02-23T07:54:11;22.10;67.70
2995;DHT22;35277;49.890;8.222;2023-02-23T07:56:40;22.10;68.00
2995;DHT22;35277;49.890;8.222;2023-02-23T07:59:08;22.10;68.10
2995;DHT22;35277;49.890;8.222;2023-02-23T08:01:37;22.10;68.10
2995;DHT22;35277;49.890;8.222;2023-02-23T08:04:05;22.10;68.20
2995;DHT22;35277;49.890;8.222;2023-02-23T08:06:33;22.10;68.30
2995;DHT22;35277;49.890;8.222;2023-02-23T08:09:01;22.10;68.40
2995;DHT22;35277;49.890;8.222;2023-02-23T08:11:29;22.20;68.50
2995;DHT22;35277;49.890;8.222;2023-02-23T08:13:57;22.20;68.70
2995;DHT22;35277;49.890;8.222;2023-02-23T08:16:26;22.20;68.80
2995;DHT22;35277;49.890;8.222;2023-02-23T08:18:57;22.20;68.90
2995;DHT22;35277;49.890;8.222;2023-02-23T08:21:25;22.20;69.00
2995;DHT22;35277;49.890;8.222;2023-02-23T08:23:54;22.20;69.00
2995;DHT22;35277;49.890;8.222;2023-02-23T08:26:22;22.20;69.00
2995;DHT22;35277;49.890;8.222;2023-02-23T08:28:50;22.20;69.00
2995;DHT22;35277;49.890;8.222;2023-02-23T08:31:18;22.20;69.10
2995;DHT22;35277;49.890;8.222;2023-02-23T08:33:50;22.30;69.20
2995;DHT22;35277;49.890;8.222;2023-02-23T08:36:20;22.30;69.20
2995;DHT22;35277;49.890;8.222;2023-02-23T08:38:48;22.30;69.20
2995;DHT22;35277;49.890;8.222;2023-02-23T08:41:15;22.30;69.10
2995;DHT22;35277;49.890;8.222;2023-02-23T08:43:44;22.30;69.20
2995;DHT22;35277;49.890;8.222;2023-02-23T08:46:12;22.30;69.10
2995;DHT22;35277;49.890;8.222;2023-02-23T08:48:40;22.30;69.00
2995;DHT22;35277;49.890;8.222;2023-02-23T08:51:08;22.20;69.50
2995;DHT22;35277;49.890;8.222;2023-02-23T08:53:37;22.20;68.60
2995;DHT22;35277;49.890;8.222;2023-02-23T08:56:06;22.20;68.40
2995;DHT22;35277;49.890;8.222;2023-02-23T08:58:35;22.10;68.20
2995;DHT22;35277;49.890;8.222;2023-02-23T09:01:03;22.10;68.10
2995;DHT22;35277;49.890;8.222;2023-02-23T09:03:31;22.10;68.00
2995;DHT22;35277;49.890;8.222;2023-02-23T09:06:06;22.00;67.80
2995;DHT22;35277;49.890;8.222;2023-02-23T09:08:36;22.00;67.70
2995;DHT22;35277;49.890;8.222;2023-02-23T09:11:05;22.00;67.70
2995;DHT22;35277;49.890;8.222;2023-02-23T09:13:33;22.00;67.60
2995;DHT22;35277;49.890;8.222;2023-02-23T09:16:01;21.90;67.50
2995;DHT22;35277;49.890;8.222;2023-02-23T09:18:30;21.90;67.40
2995;DHT22;35277;49.890;8.222;2023-02-23T09:20:58;21.90;67.40
2995;DHT22;35277;49.890;8.222;2023-02-23T09:23:32;21.90;67.50
2995;DHT22;35277;49.890;8.222;2023-02-23T09:26:04;21.80;67.50
2995;DHT22;35277;49.890;8.222;2023-02-23T09:28:33;21.80;67.50
2995;DHT22;35277;49.890;8.222;2023-02-23T09:31:04;21.80;67.50
2995;DHT22;35277;49.890;8.222;2023-02-23T09:33:33;21.80;67.40
2995;DHT22;35277;49.890;8.222;2023-02-23T09:36:04;21.80;67.30
2995;DHT22;35277;49.890;8.222;2023-02-23T09:38:32;21.80;67.30
2995;DHT22;35277;49.890;8.222;2023-02-23T09:41:00;21.90;67.30
2995;DHT22;35277;49.890;8.222;2023-02-23T09:43:34;21.80;67.20
2995;DHT22;35277;49.890;8.222;2023-02-23T09:46:12;21.80;67.20
2995;DHT22;35277;49.890;8.222;2023-02-23T09:48:40;21.80;67.20
2995;DHT22;35277;49.890;8.222;2023-02-23T09:51:11;21.80;67.10
2995;DHT22;35277;49.890;8.222;2023-02-23T09:53:43;21.80;67.10
2995;DHT22;35277;49.890;8.222;2023-02-23T09:56:17;21.80;67.00
2995;DHT22;35277;49.890;8.222;2023-02-23T09:58:46;21.80;67.00
2995;DHT22;35277;49.890;8.222;2023-02-23T10:01:41;21.80;66.90
2995;DHT22;35277;49.890;8.222;2023-02-23T10:04:16;21.70;66.80
2995;DHT22;35277;49.890;8.222;2023-02-23T10:06:50;21.70;66.70
2995;DHT22;35277;49.890;8.222;2023-02-23T10:09:25;21.70;66.60
2995;DHT22;35277;49.890;8.222;2023-02-23T10:12:01;21.80;66.60
2995;DHT22;35277;49.890;8.222;2023-02-23T10:14:50;21.70;66.50
2995;DHT22;35277;49.890;8.222;2023-02-23T10:17:27;21.70;66.40
2995;DHT22;35277;49.890;8.222;2023-02-23T10:20:03;21.80;66.50
2995;DHT22;35277;49.890;8.222;2023-02-23T10:22:37;21.80;66.50
2995;DHT22;35277;49.890;8.222;2023-02-23T10:25:09;21.80;66.40
2995;DHT22;35277;49.890;8.222;2023-02-23T10:27:40;21.80;66.30
2995;DHT22;35277;49.890;8.222;2023-02-23T10:30:21;21.80;66.30
2995;DHT22;35277;49.890;8.222;2023-02-23T10:32:55;21.80;66.30
2995;DHT22;35277;49.890;8.222;2023-02-23T10:35:27;21.80;66.30
2995;DHT22;35277;49.890;8.222;2023-02-23T10:37:55;21.80;66.20
2995;DHT22;35277;49.890;8.222;2023-02-23T10:40:25;21.90;66.30
2995;DHT22;35277;49.890;8.222;2023-02-23T10:42:55;22.00;66.40
2995;DHT22;35277;49.890;8.222;2023-02-23T10:45:26;22.00;66.40
2995;DHT22;35277;49.890;8.222;2023-02-23T10:47:57;22.00;66.40
2995;DHT22;35277;49.890;8.222;2023-02-23T10:50:26;22.10;67.30
2995;DHT22;35277;49.890;8.222;2023-02-23T10:52:58;22.10;66.40
2995;DHT22;35277;49.890;8.222;2023-02-23T10:55:28;22.10;66.40
2995;DHT22;35277;49.890;8.222;2023-02-23T10:58:07;22.10;66.40
2995;DHT22;35277;49.890;8.222;2023-02-23T11:00:39;22.20;66.50
2995;DHT22;35277;49.890;8.222;2023-02-23T11:03:17;22.20;66.50
2995;DHT22;35277;49.890;8.222;2023-02-23T11:05:47;22.20;66.50
2995;DHT22;35277;49.890;8.222;2023-02-23T11:08:27;22.20;66.60
2995;DHT22;35277;49.890;8.222;2023-02-23T11:11:03;22.30;66.70
2995;DHT22;35277;49.890;8.222;2023-02-23T11:13:37;22.30;66.70
2995;DHT22;35277;49.890;8.222;2023-02-23T11:16:09;22.30;66.70
2995;DHT22;35277;49.890;8.222;2023-02-23T11:18:40;22.30;66.70
2995;DHT22;35277;49.890;8.222;2023-02-23T11:21:12;22.30;66.70
2995;DHT22;35277;49.890;8.222;2023-02-23T11:23:44;22.40;66.90
2995;DHT22;35277;49.890;8.222;2023-02-23T11:26:22;22.40;66.90
2995;DHT22;35277;49.890;8.222;2023-02-23T11:28:56;22.40;66.90
2995;DHT22;35277;49.890;8.222;2023-02-23T11:31:31;22.40;66.90
2995;DHT22;35277;49.890;8.222;2023-02-23T11:34:02;22.40;66.90
2995;DHT22;35277;49.890;8.222;2023-02-23T11:36:33;22.40;66.90
2995;DHT22;35277;49.890;8.222;2023-02-23T11:39:05;22.40;66.90
2995;DHT22;35277;49.890;8.222;2023-02-23T11:41:34;22.50;67.00
2995;DHT22;35277;49.890;8.222;2023-02-23T11:44:03;22.40;66.90
2995;DHT22;35277;49.890;8.222;2023-02-23T11:46:36;22.50;67.00
2995;DHT22;35277;49.890;8.222;2023-02-23T11:49:06;22.50;67.00
2995;DHT22;35277;49.890;8.222;2023-02-23T11:51:38;22.40;66.90
2995;DHT22;35277;49.890;8.222;2023-02-23T11:54:18;22.50;67.00
2995;DHT22;35277;49.890;8.222;2023-02-23T11:56:47;22.50;67.10
2995;DHT22;35277;49.890;8.222;2023-02-23T11:59:21;22.50;67.00
2995;DHT22;35277;49.890;8.222;2023-02-23T12:01:54;22.50;67.00
2995;DHT22;35277;49.890;8.222;2023-02-23T12:04:27;22.50;67.00
2995;DHT22;35277;49.890;8.222;2023-02-23T12:07:23;22.50;67.10
2995;DHT22;35277;49.890;8.222;2023-02-23T12:09:58;22.50;67.10
2995;DHT22;35277;49.890;8.222;2023-02-23T12:12:28;22.50;67.10
2995;DHT22;35277;49.890;8.222;2023-02-23T12:15:03;22.50;67.10
2995;DHT22;35277;49.890;8.222;2023-02-23T12:17:41;22.50;67.10
2995;DHT22;35277;49.890;8.222;2023-02-23T12:20:16;22.60;67.20
2995;DHT22;35277;49.890;8.222;2023-02-23T12:22:51;22.60;67.20
2995;DHT22;35277;49.890;8.222;2023-02-23T12:25:24;22.60;67.20
2995;DHT22;35277;49.890;8.222;2023-02-23T12:27:58;22.60;67.20
2995;DHT22;35277;49.890;8.222;2023-02-23T12:30:47;22.60;67.20
2995;DHT22;35277;49.890;8.222;2023-02-23T12:33:23;22.60;67.20
2995;DHT22;35277;49.890;8.222;2023-02-23T12:35:58;22.60;67.10
2995;DHT22;35277;49.890;8.222;2023-02-23T12:38:32;22.70;67.20
2995;DHT22;35277;49.890;8.222;2023-02-23T12:41:09;22.70;67.20
2995;DHT22;35277;49.890;8.222;2023-02-23T12:43:41;22.70;67.30
2995;DHT22;35277;49.890;8.222;2023-02-23T12:46:17;22.70;67.20
2995;DHT22;35277;49.890;8.222;2023-02-23T12:48:58;22.70;67.30
2995;DHT22;35277;49.890;8.222;2023-02-23T12:51:32;22.70;67.20
2995;DHT22;35277;49.890;8.222;2023-02-23T12:54:02;22.70;67.20
2995;DHT22;35277;49.890;8.222;2023-02-23T12:56:37;22.70;67.20
2995;DHT22;35277;49.890;8.222;2023-02-23T12:59:22;22.70;67.20
2995;DHT22;35277;49.890;8.222;2023-02-23T13:01:53;22.70;67.20
2995;DHT22;35277;49.890;8.222;2023-02-23T13:04:53;22.70;67.20
2995;DHT22;35277;49.890;8.222;2023-02-23T13:07:31;22.70;67.30
2995;DHT22;35277;49.890;8.222;2023-02-23T13:10:08;22.70;67.30
2995;DHT22;35277;49.890;8.222;2023-02-23T13:12:44;22.70;67.30
2995;DHT22;35277;49.890;8.222;2023-02-23T13:15:22;22.70;67.30
2995;DHT22;35277;49.890;8.222;2023-02-23T13:17:57;22.70;67.30
2995;DHT22;35277;49.890;8.222;2023-02-23T13:20:32;22.70;67.30
2995;DHT22;35277;49.890;8.222;2023-02-23T13:23:11;22.70;67.40
2995;DHT22;35277;49.890;8.222;2023-02-23T13:25:49;22.70;67.40
2995;DHT22;35277;49.890;8.222;2023-02-23T13:28:24;22.70;67.40
2995;DHT22;35277;49.890;8.222;2023-02-23T13:30:55;22.70;67.40
2995;DHT22;35277;49.890;8.222;2023-02-23T13:33:26;22.70;67.40
2995;DHT22;35277;49.890;8.222;2023-02-23T13:36:10;22.60;67.30
2995;DHT22;35277;49.890;8.222;2023-02-23T13:38:42;22.70;67.50
2995;DHT22;35277;49.890;8.222;2023-02-23T13:41:23;22.70;67.40
2995;DHT22;35277;49.890;8.222;2023-02-23T13:43:59;22.70;67.40
2995;DHT22;35277;49.890;8.222;2023-02-23T13:46:33;22.70;67.40
2995;DHT22;35277;49.890;8.222;2023-02-23T13:49:19;22.70;67.50
2995;DHT22;35277;49.890;8.222;2023-02-23T13:51:54;22.70;67.40
2995;DHT22;35277;49.890;8.222;2023-02-23T13:54:29;22.60;67.30
2995;DHT22;35277;49.890;8.222;2023-02-23T13:57:00;22.70;67.40
2995;DHT22;35277;49.890;8.222;2023-02-23T13:59:30;22.70;67.40
2995;DHT22;35277;49.890;8.222;2023-02-23T14:02:19;22.70;67.40
2995;DHT22;35277;49.890;8.222;2023-02-23T14:04:50;22.60;67.30
2995;DHT22;35277;49.890;8.222;2023-02-23T14:07:24;22.70;67.40
2995;DHT22;35277;49.890;8.222;2023-02-23T14:09:54;22.70;67.40
2995;DHT22;35277;49.890;8.222;2023-02-23T14:12:24;22.70;67.50
2995;DHT22;35277;49.890;8.222;2023-02-23T14:14:53;22.60;67.30
2995;DHT22;35277;49.890;8.222;2023-02-23T14:17:53;22.70;67.40
2995;DHT22;35277;49.890;8.222;2023-02-23T14:20:51;22.60;67.30
2995;DHT22;35277;49.890;8.222;2023-02-23T14:23:31;22.70;67.50
2995;DHT22;35277;49.890;8.222;2023-02-23T14:26:16;22.60;67.30
2995;DHT22;35277;49.890;8.222;2023-02-23T14:28:45;22.60;67.30
2995;DHT22;35277;49.890;8.222;2023-02-23T14:31:20;22.60;67.30
2995;DHT22;35277;49.890;8.222;2023-02-23T14:33:56;22.60;67.30
2995;DHT22;35277;49.890;8.222;2023-02-23T14:36:35;22.60;67.30
2995;DHT22;35277;49.890;8.222;2023-02-23T14:39:14;22.60;67.40
2995;DHT22;35277;49.890;8.222;2023-02-23T14:41:45;22.60;67.30
2995;DHT22;35277;49.890;8.222;2023-02-23T14:44:18;22.60;67.30
2995;DHT22;35277;49.890;8.222;2023-02-23T14:47:00;22.60;67.30
2995;DHT22;35277;49.890;8.222;2023-02-23T14:49:31;22.60;67.40
2995;DHT22;35277;49.890;8.222;2023-02-23T14:52:06;22.60;67.40
2995;DHT22;35277;49.890;8.222;2023-02-23T14:54:37;22.60;67.40
2995;DHT22;35277;49.890;8.222;2023-02-23T14:57:06;22.60;67.40
2995;DHT22;35277;49.890;8.222;2023-02-23T14:59:43;22.60;67.40
2995;DHT22;35277;49.890;8.222;2023-02-23T15:02:17;22.60;67.40
2995;DHT22;35277;49.890;8.222;2023-02-23T15:04:46;22.60;67.50
2995;DHT22;35277;49.890;8.222;2023-02-23T15:07:17;22.60;67.40
2995;DHT22;35277;49.890;8.222;2023-02-23T15:09:53;22.60;67.40
2995;DHT22;35277;49.890;8.222;2023-02-23T15:12:23;22.60;67.40
2995;DHT22;35277;49.890;8.222;2023-02-23T15:14:55;22.60;67.50
2995;DHT22;35277;49.890;8.222;2023-02-23T15:17:25;22.60;67.40
2995;DHT22;35277;49.890;8.222;2023-02-23T15:19:58;22.60;67.40
2995;DHT22;35277;49.890;8.222;2023-02-23T15:22:40;22.60;67.40
2995;DHT22;35277;49.890;8.222;2023-02-23T15:25:14;22.60;67.40
2995;DHT22;35277;49.890;8.222;2023-02-23T15:27:43;22.50;67.30
2995;DHT22;35277;49.890;8.222;2023-02-23T15:30:24;22.50;67.40
2995;DHT22;35277;49.890;8.222;2023-02-23T15:33:01;22.50;67.30
2995;DHT22;35277;49.890;8.222;2023-02-23T15:35:30;22.50;67.30
2995;DHT22;35277;49.890;8.222;2023-02-23T15:37:59;22.50;67.30
2995;DHT22;35277;49.890;8.222;2023-02-23T15:40:52;22.50;67.30
2995;DHT22;35277;49.890;8.222;2023-02-23T15:43:21;22.50;67.30
2995;DHT22;35277;49.890;8.222;2023-02-23T15:45:50;22.50;67.40
2995;DHT22;35277;49.890;8.222;2023-02-23T15:48:20;22.50;67.50
2995;DHT22;35277;49.890;8.222;2023-02-23T15:50:50;22.50;67.50
2995;DHT22;35277;49.890;8.222;2023-02-23T15:53:25;22.50;67.50
2995;DHT22;35277;49.890;8.222;2023-02-23T15:56:00;22.50;67.60
2995;DHT22;35277;49.890;8.222;2023-02-23T15:58:31;22.50;67.50
2995;DHT22;35277;49.890;8.222;2023-02-23T16:01:06;22.50;67.50
2995;DHT22;35277;49.890;8.222;2023-02-23T16:03:36;22.50;67.60
2995;DHT22;35277;49.890;8.222;2023-02-23T16:06:06;22.50;67.60
2995;DHT22;35277;49.890;8.222;2023-02-23T16:08:34;22.50;67.60
2995;DHT22;35277;49.890;8.222;2023-02-23T16:11:08;22.50;67.60
2995;DHT22;35277;49.890;8.222;2023-02-23T16:13:41;22.50;67.60
2995;DHT22;35277;49.890;8.222;2023-02-23T16:16:11;22.50;67.70
2995;DHT22;35277;49.890;8.222;2023-02-23T16:18:49;22.50;67.60
2995;DHT22;35277;49.890;8.222;2023-02-23T16:21:21;22.50;67.60
2995;DHT22;35277;49.890;8.222;2023-02-23T16:23:51;22.50;67.60
2995;DHT22;35277;49.890;8.222;2023-02-23T16:26:25;22.50;67.70
2995;DHT22;35277;49.890;8.222;2023-02-23T16:28:56;22.50;67.70